sensor_id;sensor_type;location;lat;lon;timestamp;pressure;altitude;pressure_sealevel;temperature;humidity
55610;BME280;41486;52.502;13.486;2024-03-17T00:01:43;101608.00;;;5.25;100.00
55610;BME280;41486;52.502;13.486;2024-03-17T00:04:10;101607.03;;;5.27;100.00
55610;BME280;41486;52.502;13.486;2024-03-17T00:06:38;101611.66;;;5.20;100.00
55610;BME280;41486;52.502;13.486;2024-03-17T00:09:07;101614.66;;;5.10;100.00
55610;BME280;41486;52.502;13.486;2024-03-17T00:11:35;101631.13;;;5.12;100.00
55610;BME280;41486;52.502;13.486;2024-03-17T00:14:02;101615.91;;;5.23;100.00
55610;BME280;41486;52.502;13.486;2024-03-17T00:16:28;101623.00;;;5.19;100.00
55610;BME280;41486;52.502;13.486;2024-03-17T00:18:55;101621.31;;;5.18;100.00
55610;BME280;41486;52.502;13.486;2024-03-17T00:21:22;101617.09;;;5.14;100.00
55610;BME280;41486;52.502;13.486;2024-03-17T00:23:50;101621.31;;;5.18;100.00
55610;BME280;41486;52.502;13.486;2024-03-17T00:26:17;101615.47;;;5.12;100.00
55610;BME280;41486;52.502;13.486;2024-03-17T00:28:46;101611.47;;;5.01;100.00
55610;BME280;41486;52.502;13.486;2024-03-17T00:31:14;101618.72;;;4.95;100.00
55610;BME280;41486;52.502;13.486;2024-03-17T00:33:41;101618.97;;;5.11;100.00
55610;BME280;41486;52.502;13.486;2024-03-17T00:36:08;101620.50;;;4.93;100.00
55610;BME280;41486;52.502;13.486;2024-03-17T00:38:35;101625.41;;;5.02;100.00
55610;BME280;41486;52.502;13.486;2024-03-17T00:41:02;101633.50;;;4.94;100.00
55610;BME280;41486;52.502;13.486;2024-03-17T00:43:31;101631.22;;;4.85;100.00
55610;BME280;41486;52.502;13.486;2024-03-17T00:45:57;101628.09;;;4.99;100.00
55610;BME280;41486;52.502;13.486;2024-03-17T00:48:24;101626.00;;;4.85;100.00
55610;BME280;41486;52.502;13.486;2024-03-17T00:50:54;101632.31;;;5.03;100.00
55610;BME280;41486;52.502;13.486;2024-03-17T00:53:22;101627.66;;;4.87;100.00
55610;BME280;41486;52.502;13.486;2024-03-17T00:55:51;101630.72;;;4.99;100.00
55610;BME280;41486;52.502;13.486;2024-03-17T00:58:19;101639.28;;;5.02;100.00
55610;BME280;41486;52.502;13.486;2024-03-17T01:00:47;101622.00;;;5.00;100.00
55610;BME280;41486;52.502;13.486;2024-03-17T01:03:15;101631.59;;;4.99;100.00
55610;BME280;41486;52.502;13.486;2024-03-17T01:05:41;101630.94;;;4.93;100.00
55610;BME280;41486;52.502;13.486;2024-03-17T01:08:10;101628.59;;;4.85;100.00
55610;BME280;41486;52.502;13.486;2024-03-17T01:10:40;101623.41;;;4.85;100.00
55610;BME280;41486;52.502;13.486;2024-03-17T01:13:09;101634.75;;;4.84;100.00
55610;BME280;41486;52.502;13.486;2024-03-17T01:15:36;101636.25;;;4.66;100.00
55610;BME280;41486;52.502;13.486;2024-03-17T01:18:05;101629.66;;;4.81;100.00
55610;BME280;41486;52.502;13.486;2024-03-17T01:20:32;101631.28;;;4.83;100.00
55610;BME280;41486;52.502;13.486;2024-03-17T01:22:59;101635.53;;;4.86;100.00
55610;BME280;41486;52.502;13.486;2024-03-17T01:25:25;101630.38;;;4.84;100.00
55610;BME280;41486;52.502;13.486;2024-03-17T01:27:53;101629.75;;;4.78;100.00
55610;BME280;41486;52.502;13.486;2024-03-17T01:30:19;101625.56;;;4.73;100.00
55610;BME280;41486;52.502;13.486;2024-03-17T01:32:46;101626.56;;;4.69;100.00
55610;BME280;41486;52.502;13.486;2024-03-17T01:35:14;101638.81;;;4.67;100.00
55610;BME280;41486;52.502;13.486;2024-03-17T01:37:41;101623.03;;;4.70;100.00
55610;BME280;41486;52.502;13.486;2024-03-17T01:40:08;101634.38;;;4.69;100.00
55610;BME280;41486;52.502;13.486;2024-03-17T01:42:35;101630.41;;;4.59;100.00
55610;BME280;41486;52.502;13.486;2024-03-17T01:45:20;101624.94;;;4.41;100.00
55610;BME280;41486;52.502;13.486;2024-03-17T01:47:50;101620.19;;;4.53;100.00
55610;BME280;41486;52.502;13.486;2024-03-17T01:50:18;101628.72;;;4.58;100.00
55610;BME280;41486;52.502;13.486;2024-03-17T01:52:51;101617.56;;;4.54;100.00
55610;BME280;41486;52.502;13.486;2024-03-17T01:55:20;101615.94;;;4.50;100.00
55610;BME280;41486;52.502;13.486;2024-03-17T01:57:48;101617.38;;;4.59;100.00
55610;BME280;41486;52.502;13.486;2024-03-17T02:00:15;101622.63;;;4.57;100.00
55610;BME280;41486;52.502;13.486;2024-03-17T02:02:42;101613.22;;;4.53;100.00
55610;BME280;41486;52.502;13.486;2024-03-17T02:05:09;101625.47;;;4.51;100.00
55610;BME280;41486;52.502;13.486;2024-03-17T02:07:37;101624.72;;;4.48;100.00
55610;BME280;41486;52.502;13.486;2024-03-17T02:10:05;101625.53;;;4.50;100.00
55610;BME280;41486;52.502;13.486;2024-03-17T02:12:34;101618.59;;;4.49;100.00
55610;BME280;41486;52.502;13.486;2024-03-17T02:15:01;101630.75;;;4.50;100.00
55610;BME280;41486;52.502;13.486;2024-03-17T02:17:31;101627.25;;;4.49;100.00
55610;BME280;41486;52.502;13.486;2024-03-17T02:19:57;101636.84;;;4.49;100.00
55610;BME280;41486;52.502;13.486;2024-03-17T02:22:26;101638.03;;;4.40;100.00
55610;BME280;41486;52.502;13.486;2024-03-17T02:24:53;101632.03;;;4.38;100.00
55610;BME280;41486;52.502;13.486;2024-03-17T02:27:20;101623.56;;;4.31;100.00
55610;BME280;41486;52.502;13.486;2024-03-17T02:29:46;101624.13;;;4.14;100.00
55610;BME280;41486;52.502;13.486;2024-03-17T02:32:13;101619.59;;;4.19;100.00
55610;BME280;41486;52.502;13.486;2024-03-17T02:34:39;101629.97;;;4.21;100.00
55610;BME280;41486;52.502;13.486;2024-03-17T02:37:07;101616.91;;;4.22;100.00
55610;BME280;41486;52.502;13.486;2024-03-17T02:39:34;101627.03;;;4.32;100.00
55610;BME280;41486;52.502;13.486;2024-03-17T02:42:02;101624.00;;;4.17;100.00
55610;BME280;41486;52.502;13.486;2024-03-17T02:44:30;101629.19;;;4.19;100.00
55610;BME280;41486;52.502;13.486;2024-03-17T02:46:58;101621.09;;;4.26;100.00
55610;BME280;41486;52.502;13.486;2024-03-17T02:49:25;101626.59;;;4.19;100.00
55610;BME280;41486;52.502;13.486;2024-03-17T02:51:53;101626.88;;;3.83;100.00
55610;BME280;41486;52.502;13.486;2024-03-17T02:54:21;101624.78;;;3.94;100.00
55610;BME280;41486;52.502;13.486;2024-03-17T02:56:49;101630.19;;;4.15;100.00
55610;BME280;41486;52.502;13.486;2024-03-17T02:59:16;101624.59;;;4.00;100.00
55610;BME280;41486;52.502;13.486;2024-03-17T03:01:43;101626.00;;;4.10;100.00
55610;BME280;41486;52.502;13.486;2024-03-17T03:04:10;101633.31;;;3.99;100.00
55610;BME280;41486;52.502;13.486;2024-03-17T03:06:37;101626.09;;;4.07;100.00
55610;BME280;41486;52.502;13.486;2024-03-17T03:09:04;101627.88;;;4.05;100.00
55610;BME280;41486;52.502;13.486;2024-03-17T03:11:38;101627.63;;;3.86;100.00
55610;BME280;41486;52.502;13.486;2024-03-17T03:14:06;101631.59;;;3.98;100.00
55610;BME280;41486;52.502;13.486;2024-03-17T03:16:34;101620.41;;;3.96;100.00
55610;BME280;41486;52.502;13.486;2024-03-17T03:19:01;101619.69;;;3.91;100.00
55610;BME280;41486;52.502;13.486;2024-03-17T03:21:28;101634.28;;;3.68;100.00
55610;BME280;41486;52.502;13.486;2024-03-17T03:23:55;101622.56;;;3.82;100.00
55610;BME280;41486;52.502;13.486;2024-03-17T03:26:22;101621.81;;;3.78;100.00
55610;BME280;41486;52.502;13.486;2024-03-17T03:28:50;101625.25;;;3.80;100.00
55610;BME280;41486;52.502;13.486;2024-03-17T03:31:18;101637.56;;;3.75;100.00
55610;BME280;41486;52.502;13.486;2024-03-17T03:33:45;101628.13;;;3.71;100.00
55610;BME280;41486;52.502;13.486;2024-03-17T03:36:14;101628.31;;;3.65;100.00
55610;BME280;41486;52.502;13.486;2024-03-17T03:38:42;101639.28;;;3.74;100.00
55610;BME280;41486;52.502;13.486;2024-03-17T03:41:10;101630.53;;;3.77;100.00
55610;BME280;41486;52.502;13.486;2024-03-17T03:43:37;101633.88;;;3.81;100.00
55610;BME280;41486;52.502;13.486;2024-03-17T03:46:05;101632.28;;;3.76;100.00
55610;BME280;41486;52.502;13.486;2024-03-17T03:48:35;101630.88;;;3.66;100.00
55610;BME280;41486;52.502;13.486;2024-03-17T03:51:05;101642.28;;;3.62;100.00
55610;BME280;41486;52.502;13.486;2024-03-17T03:53:33;101636.56;;;3.51;100.00
55610;BME280;41486;52.502;13.486;2024-03-17T03:56:03;101637.91;;;3.64;100.00
55610;BME280;41486;52.502;13.486;2024-03-17T03:58:31;101639.56;;;3.67;100.00
55610;BME280;41486;52.502;13.486;2024-03-17T04:01:00;101637.91;;;3.64;100.00
55610;BME280;41486;52.502;13.486;2024-03-17T04:03:27;101641.28;;;3.66;100.00
55610;BME280;41486;52.502;13.486;2024-03-17T04:06:02;101642.19;;;3.37;100.00
55610;BME280;41486;52.502;13.486;2024-03-17T04:08:30;101652.59;;;3.65;100.00
55610;BME280;41486;52.502;13.486;2024-03-17T04:10:58;101638.19;;;3.55;100.00
55610;BME280;41486;52.502;13.486;2024-03-17T04:13:27;101641.56;;;3.57;100.00
55610;BME280;41486;52.502;13.486;2024-03-17T04:15:55;101652.09;;;3.54;100.00
55610;BME280;41486;52.502;13.486;2024-03-17T04:18:26;101644.22;;;3.55;100.00
55610;BME280;41486;52.502;13.486;2024-03-17T04:20:56;101635.84;;;3.45;100.00
55610;BME280;41486;52.502;13.486;2024-03-17T04:23:25;101640.31;;;3.42;100.00
55610;BME280;41486;52.502;13.486;2024-03-17T04:25:53;101644.13;;;3.30;100.00
55610;BME280;41486;52.502;13.486;2024-03-17T04:28:20;101646.31;;;3.44;100.00
55610;BME280;41486;52.502;13.486;2024-03-17T04:30:47;101647.09;;;3.47;100.00
55610;BME280;41486;52.502;13.486;2024-03-17T04:33:14;101646.97;;;3.51;100.00
55610;BME280;41486;52.502;13.486;2024-03-17T04:35:42;101648.75;;;3.48;100.00
55610;BME280;41486;52.502;13.486;2024-03-17T04:38:10;101639.88;;;3.27;100.00
55610;BME280;41486;52.502;13.486;2024-03-17T04:40:41;101647.97;;;3.46;100.00
55610;BME280;41486;52.502;13.486;2024-03-17T04:43:09;101649.81;;;3.43;100.00
55610;BME280;41486;52.502;13.486;2024-03-17T04:45:36;101649.06;;;3.39;100.00
55610;BME280;41486;52.502;13.486;2024-03-17T04:48:03;101661.19;;;3.40;100.00
55610;BME280;41486;52.502;13.486;2024-03-17T04:50:30;101664.06;;;3.29;100.00
55610;BME280;41486;52.502;13.486;2024-03-17T04:52:58;101663.16;;;3.32;100.00
55610;BME280;41486;52.502;13.486;2024-03-17T04:55:24;101664.38;;;3.20;100.00
55610;BME280;41486;52.502;13.486;2024-03-17T04:57:53;101667.41;;;3.35;100.00
55610;BME280;41486;52.502;13.486;2024-03-17T05:00:20;101669.47;;;3.23;100.00
55610;BME280;41486;52.502;13.486;2024-03-17T05:02:47;101669.47;;;3.23;100.00
55610;BME280;41486;52.502;13.486;2024-03-17T05:05:14;101685.75;;;3.30;100.00
55610;BME280;41486;52.502;13.486;2024-03-17T05:07:41;101667.81;;;3.21;100.00
55610;BME280;41486;52.502;13.486;2024-03-17T05:10:08;101670.59;;;3.14;100.00
55610;BME280;41486;52.502;13.486;2024-03-17T05:12:35;101665.56;;;3.08;100.00
55610;BME280;41486;52.502;13.486;2024-03-17T05:15:05;101673.78;;;3.24;100.00
55610;BME280;41486;52.502;13.486;2024-03-17T05:17:33;101671.34;;;3.18;100.00
55610;BME280;41486;52.502;13.486;2024-03-17T05:20:01;101663.38;;;3.24;100.00
55610;BME280;41486;52.502;13.486;2024-03-17T05:22:28;101662.47;;;3.25;100.00
55610;BME280;41486;52.502;13.486;2024-03-17T05:24:55;101675.44;;;3.27;100.00
55610;BME280;41486;52.502;13.486;2024-03-17T05:27:22;101674.66;;;3.23;100.00
55610;BME280;41486;52.502;13.486;2024-03-17T05:29:49;101672.06;;;3.23;100.00
55610;BME280;41486;52.502;13.486;2024-03-17T05:32:18;101677.22;;;3.25;100.00
55610;BME280;41486;52.502;13.486;2024-03-17T05:34:45;101676.56;;;3.18;100.00
55610;BME280;41486;52.502;13.486;2024-03-17T05:37:12;101686.84;;;3.21;100.00
55610;BME280;41486;52.502;13.486;2024-03-17T05:39:40;101691.97;;;3.24;100.00
55610;BME280;41486;52.502;13.486;2024-03-17T05:42:07;101693.13;;;3.14;100.00
55610;BME280;41486;52.502;13.486;2024-03-17T05:44:36;101688.53;;;3.24;100.00
55610;BME280;41486;52.502;13.486;2024-03-17T05:47:25;101687.72;;;3.22;100.00
55610;BME280;41486;52.502;13.486;2024-03-17T05:49:54;101682.41;;;3.25;100.00
55610;BME280;41486;52.502;13.486;2024-03-17T05:52:28;101683.03;;;3.35;100.00
55610;BME280;41486;52.502;13.486;2024-03-17T05:54:59;101692.22;;;3.46;100.00
55610;BME280;41486;52.502;13.486;2024-03-17T05:57:27;101688.13;;;3.68;100.00
55610;BME280;41486;52.502;13.486;2024-03-17T05:59:56;101693.69;;;3.55;100.00
55610;BME280;41486;52.502;13.486;2024-03-17T06:02:25;101699.84;;;3.53;100.00
55610;BME280;41486;52.502;13.486;2024-03-17T06:04:53;101701.63;;;3.51;100.00
55610;BME280;41486;52.502;13.486;2024-03-17T06:07:21;101710.78;;;3.34;100.00
55610;BME280;41486;52.502;13.486;2024-03-17T06:09:48;101710.50;;;3.43;100.00
55610;BME280;41486;52.502;13.486;2024-03-17T06:12:15;101717.44;;;3.44;100.00
55610;BME280;41486;52.502;13.486;2024-03-17T06:14:42;101725.41;;;3.38;100.00
55610;BME280;41486;52.502;13.486;2024-03-17T06:17:09;101725.31;;;3.41;100.00
55610;BME280;41486;52.502;13.486;2024-03-17T06:19:38;101730.50;;;3.41;100.00
55610;BME280;41486;52.502;13.486;2024-03-17T06:22:05;101728.47;;;3.23;100.00
55610;BME280;41486;52.502;13.486;2024-03-17T06:24:32;101721.19;;;3.34;100.00
55610;BME280;41486;52.502;13.486;2024-03-17T06:26:59;101723.84;;;3.33;100.00
55610;BME280;41486;52.502;13.486;2024-03-17T06:29:26;101727.25;;;3.35;100.00
55610;BME280;41486;52.502;13.486;2024-03-17T06:31:55;101727.91;;;3.41;100.00
55610;BME280;41486;52.502;13.486;2024-03-17T06:34:22;101742.38;;;3.52;100.00
55610;BME280;41486;52.502;13.486;2024-03-17T06:36:50;101731.13;;;3.51;100.00
55610;BME280;41486;52.502;13.486;2024-03-17T06:39:17;101739.78;;;3.52;100.00
55610;BME280;41486;52.502;13.486;2024-03-17T06:41:47;101739.63;;;3.56;100.00
55610;BME280;41486;52.502;13.486;2024-03-17T06:44:18;101739.63;;;3.56;100.00
55610;BME280;41486;52.502;13.486;2024-03-17T06:46:50;101740.78;;;3.47;100.00
55610;BME280;41486;52.502;13.486;2024-03-17T06:49:17;101748.28;;;3.57;100.00
55610;BME280;41486;52.502;13.486;2024-03-17T06:51:44;101745.59;;;3.60;100.00
55610;BME280;41486;52.502;13.486;2024-03-17T06:54:12;101755.03;;;3.64;100.00
55610;BME280;41486;52.502;13.486;2024-03-17T06:56:39;101756.72;;;3.35;100.00
55610;BME280;41486;52.502;13.486;2024-03-17T06:59:08;101758.63;;;3.60;100.00
55610;BME280;41486;52.502;13.486;2024-03-17T07:01:36;101756.78;;;3.63;100.00
55610;BME280;41486;52.502;13.486;2024-03-17T07:04:04;101760.88;;;3.72;100.00
55610;BME280;41486;52.502;13.486;2024-03-17T07:06:31;101758.16;;;3.75;100.00
55610;BME280;41486;52.502;13.486;2024-03-17T07:08:59;101768.44;;;3.80;100.00
55610;BME280;41486;52.502;13.486;2024-03-17T07:11:27;101768.22;;;3.88;100.00
55610;BME280;41486;52.502;13.486;2024-03-17T07:13:54;101773.19;;;3.95;100.00
55610;BME280;41486;52.502;13.486;2024-03-17T07:16:21;101779.22;;;3.98;100.00
55610;BME280;41486;52.502;13.486;2024-03-17T07:18:50;101773.75;;;4.05;100.00
55610;BME280;41486;52.502;13.486;2024-03-17T07:21:18;101787.38;;;4.15;100.00
55610;BME280;41486;52.502;13.486;2024-03-17T07:23:46;101789.69;;;4.24;100.00
55610;BME280;41486;52.502;13.486;2024-03-17T07:26:16;101786.75;;;4.35;100.00
55610;BME280;41486;52.502;13.486;2024-03-17T07:28:44;101795.81;;;4.22;100.00
55610;BME280;41486;52.502;13.486;2024-03-17T07:31:11;101795.09;;;4.45;100.00
55610;BME280;41486;52.502;13.486;2024-03-17T07:33:40;101786.38;;;4.46;100.00
55610;BME280;41486;52.502;13.486;2024-03-17T07:36:08;101791.94;;;4.62;100.00
55610;BME280;41486;52.502;13.486;2024-03-17T07:38:36;101789.31;;;4.64;100.00
55610;BME280;41486;52.502;13.486;2024-03-17T07:41:05;101788.94;;;4.74;100.00
55610;BME280;41486;52.502;13.486;2024-03-17T07:43:35;101804.13;;;4.62;100.00
55610;BME280;41486;52.502;13.486;2024-03-17T07:46:05;101807.44;;;4.67;100.00
55610;BME280;41486;52.502;13.486;2024-03-17T07:48:34;101814.06;;;4.77;100.00
55610;BME280;41486;52.502;13.486;2024-03-17T07:51:03;101807.88;;;4.80;100.00
55610;BME280;41486;52.502;13.486;2024-03-17T07:53:30;101812.09;;;4.57;100.00
55610;BME280;41486;52.502;13.486;2024-03-17T07:56:00;101821.72;;;4.82;100.00
55610;BME280;41486;52.502;13.486;2024-03-17T07:58:30;101806.88;;;4.84;100.00
55610;BME280;41486;52.502;13.486;2024-03-17T08:00:59;101807.88;;;4.80;100.00
55610;BME280;41486;52.502;13.486;2024-03-17T08:03:30;101809.38;;;4.87;100.00
55610;BME280;41486;52.502;13.486;2024-03-17T08:05:58;101812.34;;;4.76;100.00
55610;BME280;41486;52.502;13.486;2024-03-17T08:08:29;101811.28;;;4.82;100.00
55610;BME280;41486;52.502;13.486;2024-03-17T08:11:35;101808.09;;;4.99;100.00
55610;BME280;41486;52.502;13.486;2024-03-17T08:14:03;101807.94;;;4.78;100.00
55610;BME280;41486;52.502;13.486;2024-03-17T08:16:34;101805.47;;;5.00;100.00
55610;BME280;41486;52.502;13.486;2024-03-17T08:19:02;101805.50;;;4.99;100.00
55610;BME280;41486;52.502;13.486;2024-03-17T08:21:32;101809.59;;;5.06;100.00
55610;BME280;41486;52.502;13.486;2024-03-17T08:24:02;101797.44;;;5.05;100.00
55610;BME280;41486;52.502;13.486;2024-03-17T08:26:29;101801.00;;;5.04;100.00
55610;BME280;41486;52.502;13.486;2024-03-17T08:28:57;101805.88;;;5.13;100.00
55610;BME280;41486;52.502;13.486;2024-03-17T08:31:25;101798.03;;;5.13;100.00
55610;BME280;41486;52.502;13.486;2024-03-17T08:33:52;101805.69;;;5.19;100.00
55610;BME280;41486;52.502;13.486;2024-03-17T08:36:21;101800.72;;;5.12;100.00
55610;BME280;41486;52.502;13.486;2024-03-17T08:38:48;101793.41;;;5.21;100.00
55610;BME280;41486;52.502;13.486;2024-03-17T08:41:16;101802.34;;;5.40;100.00
55610;BME280;41486;52.502;13.486;2024-03-17T08:43:46;101800.94;;;5.55;100.00
55610;BME280;41486;52.502;13.486;2024-03-17T08:46:13;101796.97;;;5.68;100.00
55610;BME280;41486;52.502;13.486;2024-03-17T08:48:41;101807.69;;;5.60;100.00
55610;BME280;41486;52.502;13.486;2024-03-17T08:51:08;101803.16;;;5.65;100.00
55610;BME280;41486;52.502;13.486;2024-03-17T08:53:37;101812.41;;;5.74;100.00
55610;BME280;41486;52.502;13.486;2024-03-17T08:56:06;101812.66;;;5.68;100.00
55610;BME280;41486;52.502;13.486;2024-03-17T08:58:33;101817.31;;;5.60;97.19
55610;BME280;41486;52.502;13.486;2024-03-17T09:01:04;101806.47;;;5.45;98.45
55610;BME280;41486;52.502;13.486;2024-03-17T09:03:33;101820.63;;;5.40;99.56
55610;BME280;41486;52.502;13.486;2024-03-17T09:06:01;101815.84;;;5.51;97.39
55610;BME280;41486;52.502;13.486;2024-03-17T09:08:30;101821.88;;;5.53;96.89
55610;BME280;41486;52.502;13.486;2024-03-17T09:11:00;101817.56;;;5.52;95.88
55610;BME280;41486;52.502;13.486;2024-03-17T09:13:27;101817.56;;;5.52;94.84
55610;BME280;41486;52.502;13.486;2024-03-17T09:15:56;101811.22;;;5.59;95.92
55610;BME280;41486;52.502;13.486;2024-03-17T09:18:26;101822.22;;;5.67;97.57
55610;BME280;41486;52.502;13.486;2024-03-17T09:20:57;101825.56;;;5.71;93.22
55610;BME280;41486;52.502;13.486;2024-03-17T09:23:25;101813.25;;;5.51;94.29
55610;BME280;41486;52.502;13.486;2024-03-17T09:25:58;101827.22;;;5.74;93.37
55610;BME280;41486;52.502;13.486;2024-03-17T09:28:26;101813.22;;;5.52;93.92
55610;BME280;41486;52.502;13.486;2024-03-17T09:30:54;101816.66;;;5.77;93.93
55610;BME280;41486;52.502;13.486;2024-03-17T09:33:22;101819.75;;;5.88;92.10
55610;BME280;41486;52.502;13.486;2024-03-17T09:35:53;101817.53;;;6.23;91.84
55610;BME280;41486;52.502;13.486;2024-03-17T09:38:21;101826.28;;;6.22;88.37
55610;BME280;41486;52.502;13.486;2024-03-17T09:40:49;101822.47;;;6.09;87.68
55610;BME280;41486;52.502;13.486;2024-03-17T09:43:19;101838.41;;;6.25;86.51
55610;BME280;41486;52.502;13.486;2024-03-17T09:45:49;101826.88;;;6.07;87.91
55610;BME280;41486;52.502;13.486;2024-03-17T09:48:20;101824.97;;;6.12;88.47
55610;BME280;41486;52.502;13.486;2024-03-17T09:50:50;101830.13;;;6.13;88.50
55610;BME280;41486;52.502;13.486;2024-03-17T09:53:23;101819.59;;;6.15;89.32
55610;BME280;41486;52.502;13.486;2024-03-17T09:55:51;101814.28;;;6.40;86.71
55610;BME280;41486;52.502;13.486;2024-03-17T09:58:19;101828.81;;;6.25;85.28
55610;BME280;41486;52.502;13.486;2024-03-17T10:00:47;101818.81;;;6.35;84.14
55610;BME280;41486;52.502;13.486;2024-03-17T10:03:45;101826.13;;;6.27;81.52
55610;BME280;41486;52.502;13.486;2024-03-17T10:06:16;101810.72;;;6.41;84.39
55610;BME280;41486;52.502;13.486;2024-03-17T10:08:44;101824.78;;;6.39;82.58
55610;BME280;41486;52.502;13.486;2024-03-17T10:11:13;101805.75;;;6.57;79.79
55610;BME280;41486;52.502;13.486;2024-03-17T10:13:42;101816.31;;;6.54;79.22
55610;BME280;41486;52.502;13.486;2024-03-17T10:16:23;101809.16;;;6.59;79.18
55610;BME280;41486;52.502;13.486;2024-03-17T10:18:51;101802.84;;;6.43;80.15
55610;BME280;41486;52.502;13.486;2024-03-17T10:21:32;101814.19;;;6.64;79.76
55610;BME280;41486;52.502;13.486;2024-03-17T10:24:07;101815.13;;;6.84;79.53
55610;BME280;41486;52.502;13.486;2024-03-17T10:26:41;101807.81;;;7.13;78.00
55610;BME280;41486;52.502;13.486;2024-03-17T10:29:23;101809.84;;;7.06;78.77
55610;BME280;41486;52.502;13.486;2024-03-17T10:31:56;101801.41;;;6.56;78.69
55610;BME280;41486;52.502;13.486;2024-03-17T10:34:26;101808.41;;;6.99;78.99
55610;BME280;41486;52.502;13.486;2024-03-17T10:37:08;101815.56;;;7.35;72.22
55610;BME280;41486;52.502;13.486;2024-03-17T10:39:37;101826.63;;;7.41;70.69
55610;BME280;41486;52.502;13.486;2024-03-17T10:42:11;101819.06;;;6.94;72.51
55610;BME280;41486;52.502;13.486;2024-03-17T10:44:41;101815.25;;;7.01;72.40
55610;BME280;41486;52.502;13.486;2024-03-17T10:47:17;101816.38;;;6.95;72.87
55610;BME280;41486;52.502;13.486;2024-03-17T10:49:52;101816.50;;;7.13;71.68
55610;BME280;41486;52.502;13.486;2024-03-17T10:52:20;101817.09;;;6.99;70.94
55610;BME280;41486;52.502;13.486;2024-03-17T10:54:49;101825.53;;;7.26;70.88
55610;BME280;41486;52.502;13.486;2024-03-17T10:57:24;101820.84;;;7.54;67.22
55610;BME280;41486;52.502;13.486;2024-03-17T10:59:54;101830.81;;;7.46;66.22
55610;BME280;41486;52.502;13.486;2024-03-17T11:02:24;101822.59;;;7.34;67.45
55610;BME280;41486;52.502;13.486;2024-03-17T11:04:53;101823.28;;;7.17;69.00
55610;BME280;41486;52.502;13.486;2024-03-17T11:07:23;101825.28;;;7.12;70.31
55610;BME280;41486;52.502;13.486;2024-03-17T11:09:51;101819.44;;;7.05;66.74
55610;BME280;41486;52.502;13.486;2024-03-17T11:12:39;101828.28;;;7.23;64.58
55610;BME280;41486;52.502;13.486;2024-03-17T11:18:39;101816.81;;;7.66;64.06
55610;BME280;41486;52.502;13.486;2024-03-17T11:21:22;101820.63;;;7.58;66.32
55610;BME280;41486;52.502;13.486;2024-03-17T11:23:55;101812.78;;;7.78;67.02
55610;BME280;41486;52.502;13.486;2024-03-17T11:26:27;101806.41;;;7.83;67.96
55610;BME280;41486;52.502;13.486;2024-03-17T11:28:54;101811.66;;;7.83;68.76
55610;BME280;41486;52.502;13.486;2024-03-17T11:31:47;101813.66;;;7.78;62.95
55610;BME280;41486;52.502;13.486;2024-03-17T11:34:36;101809.81;;;7.85;59.11
55610;BME280;41486;52.502;13.486;2024-03-17T11:37:05;101812.53;;;7.84;57.76
55610;BME280;41486;52.502;13.486;2024-03-17T11:39:47;101806.41;;;7.83;58.21
55610;BME280;41486;52.502;13.486;2024-03-17T11:42:17;101810.53;;;7.89;59.01
55610;BME280;41486;52.502;13.486;2024-03-17T11:44:44;101804.28;;;7.92;59.04
55610;BME280;41486;52.502;13.486;2024-03-17T11:47:20;101810.72;;;8.03;60.51
55610;BME280;41486;52.502;13.486;2024-03-17T11:49:49;101800.41;;;8.00;58.20
55610;BME280;41486;52.502;13.486;2024-03-17T11:52:19;101801.44;;;8.15;60.07
55610;BME280;41486;52.502;13.486;2024-03-17T11:54:46;101798.47;;;8.23;57.31
55610;BME280;41486;52.502;13.486;2024-03-17T11:57:20;101791.47;;;8.41;56.29
55610;BME280;41486;52.502;13.486;2024-03-17T11:59:48;101801.47;;;8.70;55.17
55610;BME280;41486;52.502;13.486;2024-03-17T12:02:20;101801.56;;;8.68;54.56
55610;BME280;41486;52.502;13.486;2024-03-17T12:04:49;101800.72;;;8.85;54.82
55610;BME280;41486;52.502;13.486;2024-03-17T12:07:18;101807.56;;;8.70;55.20
55610;BME280;41486;52.502;13.486;2024-03-17T12:09:46;101803.19;;;8.71;55.60
55610;BME280;41486;52.502;13.486;2024-03-17T12:12:17;101798.22;;;9.17;54.67
55610;BME280;41486;52.502;13.486;2024-03-17T12:14:43;101796.31;;;9.37;53.91
55610;BME280;41486;52.502;13.486;2024-03-17T12:17:12;101783.63;;;8.94;54.83
55610;BME280;41486;52.502;13.486;2024-03-17T12:19:44;101793.06;;;10.13;51.97
55610;BME280;41486;52.502;13.486;2024-03-17T12:22:16;101791.53;;;10.25;50.32
55610;BME280;41486;52.502;13.486;2024-03-17T12:24:44;101791.22;;;10.92;49.04
55610;BME280;41486;52.502;13.486;2024-03-17T12:27:17;101789.38;;;11.23;48.05
55610;BME280;41486;52.502;13.486;2024-03-17T12:29:44;101801.00;;;11.77;47.28
55610;BME280;41486;52.502;13.486;2024-03-17T12:32:13;101786.31;;;12.95;44.44
55610;BME280;41486;52.502;13.486;2024-03-17T12:34:41;101791.16;;;13.66;42.20
55610;BME280;41486;52.502;13.486;2024-03-17T12:37:17;101780.94;;;11.74;45.36
55610;BME280;41486;52.502;13.486;2024-03-17T12:39:44;101765.03;;;12.71;43.28
55610;BME280;41486;52.502;13.486;2024-03-17T12:42:13;101760.09;;;11.84;44.99
55610;BME280;41486;52.502;13.486;2024-03-17T12:44:46;101778.72;;;11.10;46.38
55610;BME280;41486;52.502;13.486;2024-03-17T12:47:15;101767.31;;;10.34;48.25
55610;BME280;41486;52.502;13.486;2024-03-17T12:49:46;101759.56;;;12.74;44.39
55610;BME280;41486;52.502;13.486;2024-03-17T12:52:23;101770.63;;;11.42;45.95
55610;BME280;41486;52.502;13.486;2024-03-17T12:54:57;101771.56;;;10.53;48.65
55610;BME280;41486;52.502;13.486;2024-03-17T12:57:38;101772.66;;;10.49;48.20